sensor_id;sensor_type;location;lat;lon;timestamp;P1;durP1;ratioP1;P2;durP2;ratioP2
40959;SDS011;27842;52.272;8.052;2022-09-09T00:03:44;7.55;;;1.58;;
40959;SDS011;27842;52.272;8.052;2022-09-09T00:14:13;9.73;;;1.70;;
40959;SDS011;27842;52.272;8.052;2022-09-09T00:20:10;6.40;;;1.60;;
40959;SDS011;27842;52.272;8.052;2022-09-09T00:22:43;5.45;;;1.50;;
40959;SDS011;27842;52.272;8.052;2022-09-09T00:25:16;8.68;;;1.60;;
40959;SDS011;27842;52.272;8.052;2022-09-09T00:27:51;6.82;;;1.60;;
40959;SDS011;27842;52.272;8.052;2022-09-09T00:30:24;7.50;;;1.90;;
40959;SDS011;27842;52.272;8.052;2022-09-09T00:33:05;7.60;;;1.75;;
40959;SDS011;27842;52.272;8.052;2022-09-09T00:35:50;5.53;;;1.70;;
40959;SDS011;27842;52.272;8.052;2022-09-09T00:38:41;6.30;;;1.67;;
40959;SDS011;27842;52.272;8.052;2022-09-09T00:44:00;5.63;;;1.55;;
40959;SDS011;27842;52.272;8.052;2022-09-09T00:57:19;6.00;;;1.70;;
40959;SDS011;27842;52.272;8.052;2022-09-09T01:02:56;8.70;;;1.85;;
40959;SDS011;27842;52.272;8.052;2022-09-09T01:11:21;10.93;;;1.88;;
40959;SDS011;27842;52.272;8.052;2022-09-09T01:13:53;6.57;;;1.80;;
40959;SDS011;27842;52.272;8.052;2022-09-09T01:16:25;9.60;;;2.00;;
40959;SDS011;27842;52.272;8.052;2022-09-09T01:18:53;8.13;;;2.03;;
40959;SDS011;27842;52.272;8.052;2022-09-09T01:24:09;6.40;;;1.85;;
40959;SDS011;27842;52.272;8.052;2022-09-09T01:26:42;7.22;;;1.92;;
40959;SDS011;27842;52.272;8.052;2022-09-09T01:29:14;10.00;;;2.35;;
40959;SDS011;27842;52.272;8.052;2022-09-09T01:31:42;4.55;;;1.50;;
40959;SDS011;27842;52.272;8.052;2022-09-09T01:34:17;6.47;;;1.60;;
40959;SDS011;27842;52.272;8.052;2022-09-09T01:36:46;6.55;;;1.58;;
40959;SDS011;27842;52.272;8.052;2022-09-09T01:39:17;5.47;;;1.40;;
40959;SDS011;27842;52.272;8.052;2022-09-09T01:41:42;8.15;;;1.75;;
40959;SDS011;27842;52.272;8.052;2022-09-09T01:44:08;8.52;;;1.70;;
40959;SDS011;27842;52.272;8.052;2022-09-09T01:46:34;4.97;;;1.83;;
40959;SDS011;27842;52.272;8.052;2022-09-09T01:49:00;5.80;;;1.50;;
40959;SDS011;27842;52.272;8.052;2022-09-09T01:51:28;8.35;;;1.77;;
40959;SDS011;27842;52.272;8.052;2022-09-09T01:53:54;6.25;;;1.70;;
40959;SDS011;27842;52.272;8.052;2022-09-09T02:04:18;7.97;;;1.75;;
40959;SDS011;27842;52.272;8.052;2022-09-09T02:06:46;5.22;;;1.65;;
40959;SDS011;27842;52.272;8.052;2022-09-09T02:09:17;6.57;;;1.65;;
40959;SDS011;27842;52.272;8.052;2022-09-09T02:11:47;5.90;;;1.67;;
40959;SDS011;27842;52.272;8.052;2022-09-09T02:14:24;5.25;;;1.58;;
40959;SDS011;27842;52.272;8.052;2022-09-09T02:17:01;6.57;;;1.70;;
40959;SDS011;27842;52.272;8.052;2022-09-09T02:19:34;6.05;;;1.70;;
40959;SDS011;27842;52.272;8.052;2022-09-09T02:22:04;8.32;;;1.95;;
40959;SDS011;27842;52.272;8.052;2022-09-09T02:24:31;6.20;;;1.73;;
40959;SDS011;27842;52.272;8.052;2022-09-09T02:27:02;7.95;;;1.70;;
40959;SDS011;27842;52.272;8.052;2022-09-09T02:29:33;10.10;;;1.60;;
40959;SDS011;27842;52.272;8.052;2022-09-09T02:32:03;5.40;;;1.42;;
40959;SDS011;27842;52.272;8.052;2022-09-09T02:34:34;5.68;;;1.58;;
40959;SDS011;27842;52.272;8.052;2022-09-09T02:37:06;3.97;;;1.50;;
40959;SDS011;27842;52.272;8.052;2022-09-09T02:39:34;5.43;;;1.52;;
40959;SDS011;27842;52.272;8.052;2022-09-09T02:42:00;5.55;;;1.83;;
40959;SDS011;27842;52.272;8.052;2022-09-09T02:44:25;6.10;;;1.80;;
40959;SDS011;27842;52.272;8.052;2022-09-09T02:52:20;4.50;;;1.48;;
40959;SDS011;27842;52.272;8.052;2022-09-09T02:54:53;6.20;;;1.80;;
40959;SDS011;27842;52.272;8.052;2022-09-09T02:57:27;8.70;;;1.65;;
40959;SDS011;27842;52.272;8.052;2022-09-09T02:59:58;4.95;;;1.40;;
40959;SDS011;27842;52.272;8.052;2022-09-09T03:02:25;7.43;;;1.75;;
40959;SDS011;27842;52.272;8.052;2022-09-09T03:04:51;6.35;;;1.80;;
40959;SDS011;27842;52.272;8.052;2022-09-09T03:07:18;8.02;;;1.85;;
40959;SDS011;27842;52.272;8.052;2022-09-09T03:09:44;6.25;;;1.77;;
40959;SDS011;27842;52.272;8.052;2022-09-09T03:12:10;6.03;;;1.77;;
40959;SDS011;27842;52.272;8.052;2022-09-09T03:14:37;3.70;;;1.63;;
40959;SDS011;27842;52.272;8.052;2022-09-09T03:17:04;8.45;;;1.60;;
40959;SDS011;27842;52.272;8.052;2022-09-09T03:19:30;7.95;;;1.60;;
40959;SDS011;27842;52.272;8.052;2022-09-09T03:21:56;5.45;;;1.60;;
40959;SDS011;27842;52.272;8.052;2022-09-09T03:24:25;5.95;;;1.65;;
40959;SDS011;27842;52.272;8.052;2022-09-09T03:26:51;6.40;;;1.52;;
40959;SDS011;27842;52.272;8.052;2022-09-09T03:29:16;4.28;;;1.42;;
40959;SDS011;27842;52.272;8.052;2022-09-09T03:31:43;7.72;;;1.50;;
40959;SDS011;27842;52.272;8.052;2022-09-09T03:34:09;5.50;;;1.70;;
40959;SDS011;27842;52.272;8.052;2022-09-09T03:36:35;8.23;;;2.55;;
40959;SDS011;27842;52.272;8.052;2022-09-09T03:39:01;8.50;;;1.90;;
40959;SDS011;27842;52.272;8.052;2022-09-09T03:41:30;5.97;;;1.90;;
40959;SDS011;27842;52.272;8.052;2022-09-09T03:43:55;4.05;;;1.63;;
40959;SDS011;27842;52.272;8.052;2022-09-09T03:46:22;8.38;;;2.10;;
40959;SDS011;27842;52.272;8.052;2022-09-09T03:48:49;6.37;;;1.80;;
40959;SDS011;27842;52.272;8.052;2022-09-09T03:51:17;9.15;;;2.17;;
40959;SDS011;27842;52.272;8.052;2022-09-09T03:53:43;8.85;;;1.88;;
40959;SDS011;27842;52.272;8.052;2022-09-09T03:56:09;5.97;;;1.80;;
40959;SDS011;27842;52.272;8.052;2022-09-09T03:58:35;5.78;;;2.00;;
40959;SDS011;27842;52.272;8.052;2022-09-09T04:01:03;6.43;;;2.03;;
40959;SDS011;27842;52.272;8.052;2022-09-09T04:03:30;7.82;;;2.08;;
40959;SDS011;27842;52.272;8.052;2022-09-09T04:05:57;7.47;;;2.17;;
40959;SDS011;27842;52.272;8.052;2022-09-09T04:08:24;5.80;;;1.92;;
40959;SDS011;27842;52.272;8.052;2022-09-09T04:10:51;7.60;;;2.10;;
40959;SDS011;27842;52.272;8.052;2022-09-09T04:13:17;4.63;;;2.05;;
40959;SDS011;27842;52.272;8.052;2022-09-09T04:15:44;6.60;;;2.00;;
40959;SDS011;27842;52.272;8.052;2022-09-09T04:18:20;6.20;;;2.10;;
40959;SDS011;27842;52.272;8.052;2022-09-09T04:20:49;7.10;;;2.28;;
40959;SDS011;27842;52.272;8.052;2022-09-09T04:23:16;9.05;;;2.28;;
40959;SDS011;27842;52.272;8.052;2022-09-09T04:25:44;9.52;;;2.20;;
40959;SDS011;27842;52.272;8.052;2022-09-09T04:28:11;7.18;;;1.92;;
40959;SDS011;27842;52.272;8.052;2022-09-09T04:30:38;8.38;;;2.40;;
40959;SDS011;27842;52.272;8.052;2022-09-09T04:33:04;7.05;;;1.83;;
40959;SDS011;27842;52.272;8.052;2022-09-09T04:35:31;7.00;;;2.00;;
40959;SDS011;27842;52.272;8.052;2022-09-09T04:37:57;11.25;;;2.28;;
40959;SDS011;27842;52.272;8.052;2022-09-09T04:40:22;8.57;;;2.17;;
40959;SDS011;27842;52.272;8.052;2022-09-09T04:42:48;8.05;;;1.92;;
40959;SDS011;27842;52.272;8.052;2022-09-09T04:45:14;7.20;;;2.20;;
40959;SDS011;27842;52.272;8.052;2022-09-09T04:47:40;7.90;;;2.13;;
40959;SDS011;27842;52.272;8.052;2022-09-09T04:50:06;5.22;;;1.95;;
40959;SDS011;27842;52.272;8.052;2022-09-09T04:52:34;9.35;;;2.45;;
40959;SDS011;27842;52.272;8.052;2022-09-09T04:55:00;7.10;;;2.17;;
40959;SDS011;27842;52.272;8.052;2022-09-09T04:57:26;10.88;;;2.25;;
40959;SDS011;27842;52.272;8.052;2022-09-09T04:59:52;8.95;;;2.03;;
40959;SDS011;27842;52.272;8.052;2022-09-09T05:02:20;12.75;;;2.80;;
40959;SDS011;27842;52.272;8.052;2022-09-09T05:04:46;8.95;;;2.13;;
40959;SDS011;27842;52.272;8.052;2022-09-09T05:07:11;9.73;;;2.45;;
40959;SDS011;27842;52.272;8.052;2022-09-09T05:09:38;10.00;;;2.38;;
40959;SDS011;27842;52.272;8.052;2022-09-09T05:12:04;11.57;;;2.40;;
40959;SDS011;27842;52.272;8.052;2022-09-09T05:14:29;8.32;;;2.08;;
40959;SDS011;27842;52.272;8.052;2022-09-09T05:16:55;8.95;;;2.15;;
40959;SDS011;27842;52.272;8.052;2022-09-09T05:19:21;8.88;;;1.98;;
40959;SDS011;27842;52.272;8.052;2022-09-09T05:21:46;8.35;;;2.20;;
40959;SDS011;27842;52.272;8.052;2022-09-09T05:24:12;7.35;;;2.00;;
40959;SDS011;27842;52.272;8.052;2022-09-09T05:26:38;7.78;;;2.08;;
40959;SDS011;27842;52.272;8.052;2022-09-09T05:29:03;7.75;;;2.03;;
40959;SDS011;27842;52.272;8.052;2022-09-09T05:31:30;8.25;;;2.10;;
40959;SDS011;27842;52.272;8.052;2022-09-09T05:33:55;5.82;;;1.60;;
40959;SDS011;27842;52.272;8.052;2022-09-09T05:36:21;10.85;;;2.20;;
40959;SDS011;27842;52.272;8.052;2022-09-09T05:38:47;8.98;;;2.05;;
40959;SDS011;27842;52.272;8.052;2022-09-09T05:41:14;7.60;;;1.95;;
40959;SDS011;27842;52.272;8.052;2022-09-09T05:43:41;6.82;;;1.60;;
40959;SDS011;27842;52.272;8.052;2022-09-09T05:46:13;9.57;;;2.40;;
40959;SDS011;27842;52.272;8.052;2022-09-09T05:48:46;8.38;;;1.83;;
40959;SDS011;27842;52.272;8.052;2022-09-09T05:51:15;9.32;;;1.55;;
40959;SDS011;27842;52.272;8.052;2022-09-09T05:53:43;12.20;;;2.25;;
40959;SDS011;27842;52.272;8.052;2022-09-09T05:56:16;7.90;;;1.80;;
40959;SDS011;27842;52.272;8.052;2022-09-09T05:58:44;11.45;;;2.03;;
40959;SDS011;27842;52.272;8.052;2022-09-09T06:01:18;7.35;;;1.50;;
40959;SDS011;27842;52.272;8.052;2022-09-09T06:03:49;8.13;;;1.70;;
40959;SDS011;27842;52.272;8.052;2022-09-09T06:06:18;10.90;;;2.35;;
40959;SDS011;27842;52.272;8.052;2022-09-09T06:08:53;9.27;;;1.85;;
40959;SDS011;27842;52.272;8.052;2022-09-09T06:11:21;6.90;;;1.80;;
40959;SDS011;27842;52.272;8.052;2022-09-09T06:13:48;8.80;;;1.55;;
40959;SDS011;27842;52.272;8.052;2022-09-09T06:16:19;7.00;;;1.63;;
40959;SDS011;27842;52.272;8.052;2022-09-09T06:18:48;8.05;;;1.73;;
40959;SDS011;27842;52.272;8.052;2022-09-09T06:21:18;7.32;;;1.70;;
40959;SDS011;27842;52.272;8.052;2022-09-09T06:23:44;7.32;;;1.77;;
40959;SDS011;27842;52.272;8.052;2022-09-09T06:26:12;6.90;;;1.63;;
40959;SDS011;27842;52.272;8.052;2022-09-09T06:28:38;9.18;;;2.15;;
40959;SDS011;27842;52.272;8.052;2022-09-09T06:31:05;8.13;;;1.70;;
40959;SDS011;27842;52.272;8.052;2022-09-09T06:33:36;8.55;;;1.63;;
40959;SDS011;27842;52.272;8.052;2022-09-09T06:36:06;8.57;;;1.83;;
40959;SDS011;27842;52.272;8.052;2022-09-09T06:38:35;10.90;;;2.13;;
40959;SDS011;27842;52.272;8.052;2022-09-09T06:41:00;8.90;;;2.10;;
40959;SDS011;27842;52.272;8.052;2022-09-09T06:43:26;7.07;;;1.73;;
40959;SDS011;27842;52.272;8.052;2022-09-09T06:45:56;8.05;;;1.90;;
40959;SDS011;27842;52.272;8.052;2022-09-09T06:48:24;5.70;;;1.75;;
40959;SDS011;27842;52.272;8.052;2022-09-09T06:53:32;7.25;;;1.70;;
40959;SDS011;27842;52.272;8.052;2022-09-09T06:59:10;10.05;;;1.65;;
40959;SDS011;27842;52.272;8.052;2022-09-09T07:01:41;7.95;;;1.70;;
40959;SDS011;27842;52.272;8.052;2022-09-09T07:04:11;7.53;;;1.90;;
40959;SDS011;27842;52.272;8.052;2022-09-09T07:06:39;9.20;;;2.00;;
40959;SDS011;27842;52.272;8.052;2022-09-09T07:09:10;10.45;;;1.95;;
40959;SDS011;27842;52.272;8.052;2022-09-09T07:11:41;9.93;;;1.80;;
40959;SDS011;27842;52.272;8.052;2022-09-09T07:14:08;11.90;;;1.83;;
40959;SDS011;27842;52.272;8.052;2022-09-09T07:16:37;9.85;;;2.17;;
40959;SDS011;27842;52.272;8.052;2022-09-09T07:19:04;8.55;;;1.80;;
40959;SDS011;27842;52.272;8.052;2022-09-09T07:21:31;11.00;;;2.25;;
40959;SDS011;27842;52.272;8.052;2022-09-09T07:23:58;11.57;;;2.17;;
40959;SDS011;27842;52.272;8.052;2022-09-09T07:26:25;9.95;;;2.10;;
40959;SDS011;27842;52.272;8.052;2022-09-09T07:28:52;14.27;;;2.05;;
40959;SDS011;27842;52.272;8.052;2022-09-09T07:31:25;10.82;;;1.92;;
40959;SDS011;27842;52.272;8.052;2022-09-09T07:33:52;7.57;;;2.03;;
40959;SDS011;27842;52.272;8.052;2022-09-09T07:36:19;7.63;;;2.05;;
40959;SDS011;27842;52.272;8.052;2022-09-09T07:41:21;7.47;;;1.80;;
40959;SDS011;27842;52.272;8.052;2022-09-09T07:43:54;7.65;;;1.73;;
40959;SDS011;27842;52.272;8.052;2022-09-09T07:46:20;9.80;;;2.00;;
40959;SDS011;27842;52.272;8.052;2022-09-09T07:48:48;5.93;;;1.70;;
40959;SDS011;27842;52.272;8.052;2022-09-09T07:51:29;10.85;;;2.05;;
40959;SDS011;27842;52.272;8.052;2022-09-09T07:54:00;7.78;;;1.90;;
40959;SDS011;27842;52.272;8.052;2022-09-09T07:56:28;7.43;;;2.00;;
40959;SDS011;27842;52.272;8.052;2022-09-09T07:58:55;10.02;;;1.95;;
40959;SDS011;27842;52.272;8.052;2022-09-09T08:01:22;9.35;;;2.28;;
40959;SDS011;27842;52.272;8.052;2022-09-09T08:04:09;10.25;;;2.28;;
40959;SDS011;27842;52.272;8.052;2022-09-09T08:06:40;10.23;;;2.20;;
40959;SDS011;27842;52.272;8.052;2022-09-09T08:09:08;9.82;;;2.00;;
40959;SDS011;27842;52.272;8.052;2022-09-09T08:11:34;13.10;;;2.38;;
40959;SDS011;27842;52.272;8.052;2022-09-09T08:14:01;11.10;;;2.08;;
40959;SDS011;27842;52.272;8.052;2022-09-09T08:16:29;12.43;;;2.20;;
40959;SDS011;27842;52.272;8.052;2022-09-09T08:18:56;10.15;;;1.85;;
40959;SDS011;27842;52.272;8.052;2022-09-09T08:21:23;7.65;;;2.00;;
40959;SDS011;27842;52.272;8.052;2022-09-09T08:23:52;11.70;;;2.58;;
40959;SDS011;27842;52.272;8.052;2022-09-09T08:26:19;15.82;;;2.20;;
40959;SDS011;27842;52.272;8.052;2022-09-09T08:28:50;15.63;;;2.92;;
40959;SDS011;27842;52.272;8.052;2022-09-09T08:31:21;11.95;;;1.90;;
40959;SDS011;27842;52.272;8.052;2022-09-09T08:33:47;11.10;;;1.90;;
40959;SDS011;27842;52.272;8.052;2022-09-09T08:36:18;11.38;;;1.90;;
40959;SDS011;27842;52.272;8.052;2022-09-09T08:38:48;10.00;;;2.03;;
40959;SDS011;27842;52.272;8.052;2022-09-09T08:43:50;11.85;;;2.05;;
40959;SDS011;27842;52.272;8.052;2022-09-09T08:46:33;13.45;;;2.65;;
40959;SDS011;27842;52.272;8.052;2022-09-09T08:58:09;11.80;;;2.50;;
40959;SDS011;27842;52.272;8.052;2022-09-09T09:01:00;7.82;;;1.90;;
40959;SDS011;27842;52.272;8.052;2022-09-09T09:09:03;14.93;;;3.00;;
40959;SDS011;27842;52.272;8.052;2022-09-09T09:11:38;14.07;;;2.20;;
40959;SDS011;27842;52.272;8.052;2022-09-09T09:14:09;11.88;;;2.60;;
40959;SDS011;27842;52.272;8.052;2022-09-09T09:16:40;15.23;;;2.78;;
40959;SDS011;27842;52.272;8.052;2022-09-09T09:19:14;11.18;;;2.55;;
40959;SDS011;27842;52.272;8.052;2022-09-09T09:21:42;15.10;;;2.78;;
40959;SDS011;27842;52.272;8.052;2022-09-09T09:24:19;12.73;;;2.70;;
40959;SDS011;27842;52.272;8.052;2022-09-09T09:26:48;13.68;;;2.90;;
40959;SDS011;27842;52.272;8.052;2022-09-09T09:29:15;8.30;;;2.50;;
40959;SDS011;27842;52.272;8.052;2022-09-09T09:31:55;10.30;;;2.40;;
40959;SDS011;27842;52.272;8.052;2022-09-09T09:34:23;14.20;;;2.55;;
40959;SDS011;27842;52.272;8.052;2022-09-09T09:36:54;10.32;;;2.25;;
40959;SDS011;27842;52.272;8.052;2022-09-09T09:39:22;14.05;;;2.30;;
40959;SDS011;27842;52.272;8.052;2022-09-09T09:41:53;12.18;;;2.55;;
40959;SDS011;27842;52.272;8.052;2022-09-09T09:44:23;12.02;;;2.13;;
40959;SDS011;27842;52.272;8.052;2022-09-09T09:47:05;14.23;;;2.42;;
40959;SDS011;27842;52.272;8.052;2022-09-09T09:49:30;16.13;;;2.80;;
40959;SDS011;27842;52.272;8.052;2022-09-09T09:52:00;15.60;;;3.03;;
40959;SDS011;27842;52.272;8.052;2022-09-09T09:54:31;10.88;;;2.78;;
40959;SDS011;27842;52.272;8.052;2022-09-09T09:57:08;16.88;;;3.00;;
40959;SDS011;27842;52.272;8.052;2022-09-09T09:59:39;15.95;;;3.35;;
40959;SDS011;27842;52.272;8.052;2022-09-09T10:04:39;15.18;;;3.47;;
40959;SDS011;27842;52.272;8.052;2022-09-09T10:07:15;12.05;;;3.38;;
40959;SDS011;27842;52.272;8.052;2022-09-09T10:09:47;11.68;;;3.00;;
40959;SDS011;27842;52.272;8.052;2022-09-09T10:18:08;13.40;;;3.05;;
40959;SDS011;27842;52.272;8.052;2022-09-09T10:20:44;11.63;;;3.20;;
40959;SDS011;27842;52.272;8.052;2022-09-09T10:37:27;12.65;;;3.83;;
40959;SDS011;27842;52.272;8.052;2022-09-09T10:43:01;11.48;;;2.80;;
40959;SDS011;27842;52.272;8.052;2022-09-09T10:45:39;12.75;;;2.72;;
40959;SDS011;27842;52.272;8.052;2022-09-09T10:51:01;13.63;;;2.85;;
40959;SDS011;27842;52.272;8.052;2022-09-09T10:56:17;14.55;;;2.75;;
40959;SDS011;27842;52.272;8.052;2022-09-09T11:01:29;10.75;;;2.33;;
40959;SDS011;27842;52.272;8.052;2022-09-09T11:04:21;9.57;;;2.28;;
40959;SDS011;27842;52.272;8.052;2022-09-09T11:06:52;11.07;;;2.28;;
40959;SDS011;27842;52.272;8.052;2022-09-09T11:09:24;23.15;;;3.25;;
40959;SDS011;27842;52.272;8.052;2022-09-09T11:11:53;12.40;;;2.97;;
40959;SDS011;27842;52.272;8.052;2022-09-09T11:14:33;14.52;;;3.00;;
40959;SDS011;27842;52.272;8.052;2022-09-09T11:17:14;12.00;;;2.67;;
40959;SDS011;27842;52.272;8.052;2022-09-09T11:19:43;11.73;;;2.47;;
40959;SDS011;27842;52.272;8.052;2022-09-09T11:22:25;14.48;;;2.55;;
40959;SDS011;27842;52.272;8.052;2022-09-09T11:24:59;11.43;;;2.30;;
40959;SDS011;27842;52.272;8.052;2022-09-09T11:38:59;12.02;;;2.63;;
40959;SDS011;27842;52.272;8.052;2022-09-09T11:41:36;16.35;;;5.55;;
40959;SDS011;27842;52.272;8.052;2022-09-09T11:44:09;16.42;;;4.78;;
40959;SDS011;27842;52.272;8.052;2022-09-09T11:46:44;13.65;;;3.67;;
40959;SDS011;27842;52.272;8.052;2022-09-09T11:52:11;14.30;;;2.83;;
40959;SDS011;27842;52.272;8.052;2022-09-09T11:54:55;12.82;;;3.00;;
40959;SDS011;27842;52.272;8.052;2022-09-09T11:59:50;7.30;;;2.30;;
40959;SDS011;27842;52.272;8.052;2022-09-09T12:02:19;12.07;;;2.75;;
40959;SDS011;27842;52.272;8.052;2022-09-09T12:07:37;10.13;;;2.42;;
40959;SDS011;27842;52.272;8.052;2022-09-09T12:12:48;7.95;;;2.90;;
40959;SDS011;27842;52.272;8.052;2022-09-09T12:15:18;8.88;;;2.35;;
40959;SDS011;27842;52.272;8.052;2022-09-09T12:22:44;10.52;;;2.60;;
40959;SDS011;27842;52.272;8.052;2022-09-09T12:28:16;11.82;;;3.05;;
40959;SDS011;27842;52.272;8.052;2022-09-09T12:33:35;10.48;;;2.75;;
40959;SDS011;27842;52.272;8.052;2022-09-09T12:36:04;11.88;;;2.90;;
40959;SDS011;27842;52.272;8.052;2022-09-09T12:38:36;6.65;;;2.28;;
40959;SDS011;27842;52.272;8.052;2022-09-09T12:41:04;13.45;;;3.35;;
40959;SDS011;27842;52.272;8.052;2022-09-09T12:43:30;11.18;;;2.88;;
40959;SDS011;27842;52.272;8.052;2022-09-09T12:46:07;7.50;;;2.20;;
40959;SDS011;27842;52.272;8.052;2022-09-09T12:48:46;9.02;;;2.55;;
40959;SDS011;27842;52.272;8.052;2022-09-09T12:54:13;11.10;;;2.97;;
40959;SDS011;27842;52.272;8.052;2022-09-09T12:56:40;7.03;;;2.67;;
40959;SDS011;27842;52.272;8.052;2022-09-09T12:59:23;12.55;;;2.75;;
40959;SDS011;27842;52.272;8.052;2022-09-09T13:04:23;11.30;;;2.97;;
40959;SDS011;27842;52.272;8.052;2022-09-09T13:06:49;7.38;;;2.10;;
40959;SDS011;27842;52.272;8.052;2022-09-09T13:09:17;7.47;;;1.93;;
40959;SDS011;27842;52.272;8.052;2022-09-09T13:11:43;12.43;;;2.40;;
40959;SDS011;27842;52.272;8.052;2022-09-09T13:14:39;12.25;;;2.47;;
40959;SDS011;27842;52.272;8.052;2022-09-09T13:17:17;7.50;;;2.30;;
40959;SDS011;27842;52.272;8.052;2022-09-09T13:19:45;8.15;;;2.00;;
40959;SDS011;27842;52.272;8.052;2022-09-09T13:22:23;15.82;;;6.03;;
40959;SDS011;27842;52.272;8.052;2022-09-09T13:29:56;16.60;;;3.40;;
40959;SDS011;27842;52.272;8.052;2022-09-09T13:32:22;12.48;;;2.65;;
40959;SDS011;27842;52.272;8.052;2022-09-09T13:34:53;10.33;;;2.93;;
40959;SDS011;27842;52.272;8.052;2022-09-09T13:37:32;9.05;;;2.55;;
40959;SDS011;27842;52.272;8.052;2022-09-09T13:40:04;11.63;;;2.70;;
40959;SDS011;27842;52.272;8.052;2022-09-09T13:42:36;9.95;;;2.70;;
40959;SDS011;27842;52.272;8.052;2022-09-09T13:45:14;6.70;;;2.10;;
40959;SDS011;27842;52.272;8.052;2022-09-09T13:47:45;7.18;;;2.20;;
40959;SDS011;27842;52.272;8.052;2022-09-09T13:52:49;9.68;;;2.03;;
40959;SDS011;27842;52.272;8.052;2022-09-09T13:55:18;8.82;;;1.98;;
40959;SDS011;27842;52.272;8.052;2022-09-09T13:57:53;8.70;;;2.50;;
40959;SDS011;27842;52.272;8.052;2022-09-09T14:00:30;11.65;;;2.60;;
40959;SDS011;27842;52.272;8.052;2022-09-09T14:02:58;10.52;;;1.52;;
40959;SDS011;27842;52.272;8.052;2022-09-09T14:05:28;5.70;;;1.63;;
40959;SDS011;27842;52.272;8.052;2022-09-09T14:07:58;8.32;;;2.20;;
40959;SDS011;27842;52.272;8.052;2022-09-09T14:10:25;8.40;;;2.00;;
40959;SDS011;27842;52.272;8.052;2022-09-09T14:12:51;5.63;;;1.30;;
40959;SDS011;27842;52.272;8.052;2022-09-09T14:15:18;8.60;;;1.90;;
40959;SDS011;27842;52.272;8.052;2022-09-09T14:17:44;9.60;;;2.10;;
40959;SDS011;27842;52.272;8.052;2022-09-09T14:20:09;9.48;;;2.00;;
40959;SDS011;27842;52.272;8.052;2022-09-09T14:22:37;7.00;;;1.73;;
40959;SDS011;27842;52.272;8.052;2022-09-09T14:25:04;8.23;;;1.70;;
40959;SDS011;27842;52.272;8.052;2022-09-09T14:27:31;8.57;;;1.70;;
40959;SDS011;27842;52.272;8.052;2022-09-09T14:29:57;10.60;;;2.35;;
40959;SDS011;27842;52.272;8.052;2022-09-09T14:32:23;9.27;;;2.30;;
40959;SDS011;27842;52.272;8.052;2022-09-09T14:34:48;10.25;;;2.38;;
40959;SDS011;27842;52.272;8.052;2022-09-09T14:37:14;13.43;;;2.20;;
40959;SDS011;27842;52.272;8.052;2022-09-09T14:39:41;8.77;;;2.47;;
40959;SDS011;27842;52.272;8.052;2022-09-09T14:42:09;8.18;;;2.17;;
40959;SDS011;27842;52.272;8.052;2022-09-09T14:44:36;18.80;;;3.80;;
40959;SDS011;27842;52.272;8.052;2022-09-09T14:47:03;13.63;;;2.95;;
40959;SDS011;27842;52.272;8.052;2022-09-09T14:49:33;10.38;;;2.50;;
40959;SDS011;27842;52.272;8.052;2022-09-09T14:51:59;11.27;;;2.45;;
40959;SDS011;27842;52.272;8.052;2022-09-09T14:54:25;10.85;;;2.50;;
40959;SDS011;27842;52.272;8.052;2022-09-09T14:56:50;12.02;;;3.30;;
40959;SDS011;27842;52.272;8.052;2022-09-09T14:59:16;13.90;;;4.32;;
40959;SDS011;27842;52.272;8.052;2022-09-09T15:01:42;11.02;;;3.53;;
40959;SDS011;27842;52.272;8.052;2022-09-09T15:04:07;11.38;;;3.78;;
40959;SDS011;27842;52.272;8.052;2022-09-09T15:06:36;11.65;;;3.83;;
40959;SDS011;27842;52.272;8.052;2022-09-09T15:09:04;14.45;;;3.08;;
40959;SDS011;27842;52.272;8.052;2022-09-09T15:11:30;16.33;;;4.55;;
40959;SDS011;27842;52.272;8.052;2022-09-09T15:14:02;11.65;;;3.72;;
40959;SDS011;27842;52.272;8.052;2022-09-09T15:16:29;10.98;;;2.83;;
40959;SDS011;27842;52.272;8.052;2022-09-09T15:18:57;11.30;;;3.03;;
40959;SDS011;27842;52.272;8.052;2022-09-09T15:21:24;8.57;;;2.30;;
40959;SDS011;27842;52.272;8.052;2022-09-09T15:23:52;9.85;;;2.97;;
40959;SDS011;27842;52.272;8.052;2022-09-09T15:26:18;10.57;;;2.92;;
40959;SDS011;27842;52.272;8.052;2022-09-09T15:28:44;8.35;;;2.35;;
40959;SDS011;27842;52.272;8.052;2022-09-09T15:31:30;5.38;;;2.30;;
40959;SDS011;27842;52.272;8.052;2022-09-09T15:33:57;6.22;;;2.40;;
40959;SDS011;27842;52.272;8.052;2022-09-09T15:38:54;10.32;;;2.90;;
40959;SDS011;27842;52.272;8.052;2022-09-09T15:41:21;10.63;;;2.60;;
40959;SDS011;27842;52.272;8.052;2022-09-09T15:43:52;10.52;;;3.25;;
40959;SDS011;27842;52.272;8.052;2022-09-09T15:46:29;7.10;;;2.40;;
40959;SDS011;27842;52.272;8.052;2022-09-09T15:49:12;7.60;;;2.40;;
40959;SDS011;27842;52.272;8.052;2022-09-09T15:51:59;10.32;;;2.47;;
40959;SDS011;27842;52.272;8.052;2022-09-09T15:54:30;11.98;;;2.22;;
40959;SDS011;27842;52.272;8.052;2022-09-09T15:56:58;6.78;;;2.15;;
40959;SDS011;27842;52.272;8.052;2022-09-09T15:59:27;5.07;;;1.80;;
40959;SDS011;27842;52.272;8.052;2022-09-09T16:01:54;5.93;;;2.00;;
40959;SDS011;27842;52.272;8.052;2022-09-09T16:04:21;6.18;;;1.80;;
40959;SDS011;27842;52.272;8.052;2022-09-09T16:06:55;9.23;;;1.90;;
40959;SDS011;27842;52.272;8.052;2022-09-09T16:09:23;5.43;;;1.27;;
40959;SDS011;27842;52.272;8.052;2022-09-09T16:11:49;4.65;;;1.42;;
40959;SDS011;27842;52.272;8.052;2022-09-09T16:14:18;6.68;;;1.90;;
40959;SDS011;27842;52.272;8.052;2022-09-09T16:16:43;11.95;;;2.85;;
40959;SDS011;27842;52.272;8.052;2022-09-09T16:19:10;8.07;;;2.78;;
40959;SDS011;27842;52.272;8.052;2022-09-09T16:21:47;7.68;;;2.42;;
40959;SDS011;27842;52.272;8.052;2022-09-09T16:24:15;6.70;;;2.10;;
40959;SDS011;27842;52.272;8.052;2022-09-09T16:26:46;7.50;;;2.22;;
40959;SDS011;27842;52.272;8.052;2022-09-09T16:29:14;9.57;;;2.95;;
40959;SDS011;27842;52.272;8.052;2022-09-09T16:31:40;9.02;;;2.78;;
40959;SDS011;27842;52.272;8.052;2022-09-09T16:34:07;5.95;;;2.00;;
40959;SDS011;27842;52.272;8.052;2022-09-09T16:36:33;9.15;;;3.35;;
40959;SDS011;27842;52.272;8.052;2022-09-09T16:39:02;10.60;;;3.88;;
40959;SDS011;27842;52.272;8.052;2022-09-09T16:41:33;9.95;;;3.53;;
40959;SDS011;27842;52.272;8.052;2022-09-09T16:44:00;5.28;;;2.13;;
40959;SDS011;27842;52.272;8.052;2022-09-09T16:46:28;5.50;;;1.80;;
40959;SDS011;27842;52.272;8.052;2022-09-09T16:48:55;6.82;;;2.10;;
40959;SDS011;27842;52.272;8.052;2022-09-09T16:51:24;8.23;;;2.22;;
40959;SDS011;27842;52.272;8.052;2022-09-09T16:56:19;5.95;;;1.75;;
40959;SDS011;27842;52.272;8.052;2022-09-09T16:58:52;6.45;;;1.83;;
40959;SDS011;27842;52.272;8.052;2022-09-09T17:01:23;6.25;;;1.88;;
40959;SDS011;27842;52.272;8.052;2022-09-09T17:03:56;6.22;;;2.00;;
40959;SDS011;27842;52.272;8.052;2022-09-09T17:06:23;5.97;;;1.83;;
40959;SDS011;27842;52.272;8.052;2022-09-09T17:08:59;8.95;;;2.17;;
40959;SDS011;27842;52.272;8.052;2022-09-09T17:11:29;6.10;;;1.63;;
40959;SDS011;27842;52.272;8.052;2022-09-09T17:13:55;5.07;;;1.63;;
40959;SDS011;27842;52.272;8.052;2022-09-09T17:16:24;5.63;;;1.57;;
40959;SDS011;27842;52.272;8.052;2022-09-09T17:18:53;6.70;;;1.70;;
40959;SDS011;27842;52.272;8.052;2022-09-09T17:21:21;7.28;;;2.00;;
40959;SDS011;27842;52.272;8.052;2022-09-09T17:23:48;5.88;;;1.60;;
40959;SDS011;27842;52.272;8.052;2022-09-09T17:26:15;8.63;;;2.13;;
40959;SDS011;27842;52.272;8.052;2022-09-09T17:28:42;8.27;;;1.58;;
40959;SDS011;27842;52.272;8.052;2022-09-09T17:31:09;8.60;;;1.60;;
40959;SDS011;27842;52.272;8.052;2022-09-09T17:33:39;7.03;;;1.90;;
40959;SDS011;27842;52.272;8.052;2022-09-09T17:36:28;9.13;;;2.58;;
40959;SDS011;27842;52.272;8.052;2022-09-09T17:38:56;10.10;;;3.78;;
40959;SDS011;27842;52.272;8.052;2022-09-09T17:41:25;12.70;;;3.60;;